createdAt,value
2022-11-13T00:02:09.340Z,97359.03
2022-11-13T00:04:36.951Z,97358.00
2022-11-13T00:07:04.573Z,97353.16
2022-11-13T00:09:33.514Z,97351.44
2022-11-13T00:12:01.037Z,97358.69
2022-11-13T00:14:28.550Z,97355.88
2022-11-13T00:16:56.058Z,97360.47
2022-11-13T00:19:23.609Z,97369.22
2022-11-13T00:21:51.156Z,97363.41
2022-11-13T00:24:18.687Z,97366.00
2022-11-13T00:26:47.579Z,97366.47
2022-11-13T00:29:15.112Z,97353.34
2022-11-13T00:31:42.694Z,97348.28
2022-11-13T00:34:41.064Z,97346.03
2022-11-13T00:36:58.899Z,97324.69
2022-11-13T00:39:26.456Z,97339.13
2022-11-13T00:41:55.343Z,97345.47
2022-11-13T00:44:22.902Z,97345.59
2022-11-13T00:46:50.447Z,97349.16
2022-11-13T00:49:17.979Z,97356.66
2022-11-13T00:51:45.502Z,97349.31
2022-11-13T00:54:13.046Z,97346.06
2022-11-13T00:56:40.586Z,97336.50
2022-11-13T00:59:09.770Z,97340.25
2022-11-13T01:01:37.338Z,97338.78
2022-11-13T01:04:05.211Z,97344.84
2022-11-13T01:06:32.742Z,97334.38
2022-11-13T01:09:00.687Z,97340.38
2022-11-13T01:11:30.379Z,97347.78
2022-11-13T01:13:58.711Z,97340.09
2022-11-13T01:16:29.077Z,97339.44
2022-11-13T01:18:57.280Z,97334.72
2022-11-13T01:21:27.236Z,97328.34
2022-11-13T01:23:55.171Z,97333.69
2022-11-13T01:26:25.449Z,97318.38
2022-11-13T01:28:53.156Z,97317.63
2022-11-13T01:31:22.861Z,97311.50
2022-11-13T01:33:52.078Z,97305.63
2022-11-13T01:36:21.998Z,97307.88
2022-11-13T01:38:50.411Z,97301.94
2022-11-13T01:41:23.661Z,97308.22
2022-11-13T01:43:52.460Z,97296.13
2022-11-13T01:46:25.530Z,97288.88
2022-11-13T01:48:59.798Z,97286.50
2022-11-13T01:51:30.616Z,97279.75
2022-11-13T01:53:59.721Z,97290.28
2022-11-13T01:56:27.318Z,97278.41
2022-11-13T01:58:58.962Z,97271.63
2022-11-13T02:01:26.661Z,97284.25
2022-11-13T02:03:55.575Z,97271.66
2022-11-13T02:06:23.621Z,97266.22
2022-11-13T02:08:52.114Z,97255.50
2022-11-13T02:11:21.225Z,97255.03
2022-11-13T02:13:49.124Z,97243.19
2022-11-13T02:16:17.821Z,97237.84
2022-11-13T02:18:46.459Z,97227.50
2022-11-13T02:21:29.952Z,97237.78
2022-11-13T02:24:05.775Z,97223.03
2022-11-13T02:26:34.996Z,97228.47
2022-11-13T02:29:02.523Z,97229.78
2022-11-13T02:31:30.023Z,97218.41
2022-11-13T02:33:57.527Z,97219.53
2022-11-13T02:36:27.532Z,97220.50
2022-11-13T02:38:56.575Z,97217.81
2022-11-13T02:41:24.090Z,97208.88
2022-11-13T02:43:52.978Z,97216.66
2022-11-13T02:46:20.492Z,97210.75
2022-11-13T02:48:48.042Z,97212.94
2022-11-13T02:51:15.623Z,97216.44
2022-11-13T02:53:43.158Z,97213.53
2022-11-13T02:56:10.648Z,97215.13
2022-11-13T02:58:38.184Z,97202.00
2022-11-13T03:01:07.549Z,97208.66
2022-11-13T03:03:58.968Z,97192.28
2022-11-13T03:06:23.066Z,97199.34
2022-11-13T03:08:50.619Z,97185.97
2022-11-13T03:11:18.177Z,97186.31
2022-11-13T03:13:45.719Z,97192.84
2022-11-13T03:16:16.873Z,97178.69
2022-11-13T03:18:44.451Z,97176.50
2022-11-13T03:21:14.126Z,97182.28
2022-11-13T03:23:44.897Z,97181.72
2022-11-13T03:26:14.190Z,97181.84
2022-11-13T03:28:41.830Z,97181.63
2022-11-13T03:31:09.772Z,97183.09
2022-11-13T03:33:38.775Z,97187.56
2022-11-13T03:36:07.135Z,97173.41
2022-11-13T03:38:34.698Z,97181.78
2022-11-13T03:41:02.426Z,97171.19
2022-11-13T03:43:30.035Z,97167.41
2022-11-13T03:45:57.595Z,97176.69
2022-11-13T03:48:25.300Z,97176.81
2022-11-13T03:50:56.571Z,97172.03
2022-11-13T03:53:24.132Z,97172.81
2022-11-13T03:55:51.892Z,97161.91
2022-11-13T03:58:20.651Z,97165.41
2022-11-13T04:00:49.368Z,97169.25
2022-11-13T04:03:17.160Z,97153.13
2022-11-13T04:05:44.782Z,97150.13
2022-11-13T04:08:13.695Z,97153.44
2022-11-13T04:10:41.266Z,97142.09
2022-11-13T04:13:09.042Z,97145.13
2022-11-13T04:15:36.642Z,97150.09
2022-11-13T04:18:04.798Z,97155.13
2022-11-13T04:20:32.434Z,97139.47
2022-11-13T04:23:00.087Z,97137.53
2022-11-13T04:25:29.020Z,97129.34
2022-11-13T04:27:56.545Z,97134.41
2022-11-13T04:30:24.079Z,97128.16
2022-11-13T04:32:51.603Z,97130.41
2022-11-13T04:35:19.296Z,97116.44
2022-11-13T04:37:46.855Z,97119.75
2022-11-13T04:40:14.450Z,97120.88
2022-11-13T04:42:51.278Z,97110.91
2022-11-13T04:45:20.421Z,97109.72
2022-11-13T04:47:48.814Z,97118.81
2022-11-13T04:50:17.567Z,97119.50
2022-11-13T04:52:45.730Z,97118.13
2022-11-13T04:55:13.932Z,97122.06
2022-11-13T04:57:43.229Z,97125.91
2022-11-13T05:00:12.168Z,97114.59
2022-11-13T05:02:39.742Z,97120.19
2022-11-13T05:05:07.915Z,97108.28
2022-11-13T05:07:35.472Z,97096.41
2022-11-13T05:10:03.062Z,97100.75
2022-11-13T05:12:30.583Z,97104.09
2022-11-13T05:14:59.462Z,97106.44
2022-11-13T05:17:26.978Z,97102.63
2022-11-13T05:19:54.641Z,97096.25
2022-11-13T05:22:22.150Z,97091.91
2022-11-13T05:24:49.680Z,97090.63
2022-11-13T05:27:17.875Z,97089.31
2022-11-13T05:29:45.855Z,97086.03
2022-11-13T05:32:14.883Z,97074.53
2022-11-13T05:34:42.443Z,97079.38
2022-11-13T05:37:09.988Z,97086.41
2022-11-13T05:39:37.539Z,97091.72
2022-11-13T05:42:05.629Z,97082.44
2022-11-13T05:44:33.152Z,97076.34
2022-11-13T05:47:00.710Z,97082.19
2022-11-13T05:49:29.585Z,97079.03
2022-11-13T05:51:57.112Z,97063.06
2022-11-13T05:54:24.611Z,97065.94
2022-11-13T05:56:52.124Z,97070.59
2022-11-13T05:59:19.667Z,97067.44
2022-11-13T06:01:47.419Z,97071.38
2022-11-13T06:04:15.182Z,97075.47
2022-11-13T06:06:44.081Z,97073.19
2022-11-13T06:09:16.205Z,97062.19
2022-11-13T06:11:44.088Z,97049.94
2022-11-13T06:14:11.885Z,97055.09
2022-11-13T06:16:40.617Z,97050.47
2022-11-13T06:19:10.269Z,97055.06
2022-11-13T06:21:39.631Z,97063.56
2022-11-13T06:24:09.443Z,97063.31
2022-11-13T06:26:38.708Z,97072.31
2022-11-13T06:29:08.025Z,97056.34
2022-11-13T06:31:37.873Z,97056.44
2022-11-13T06:34:07.035Z,97054.22
2022-11-13T06:36:36.590Z,97059.47
2022-11-13T06:39:08.767Z,97057.34
2022-11-13T06:41:36.675Z,97054.84
2022-11-13T06:44:04.321Z,97057.19
2022-11-13T06:46:32.385Z,97062.34
2022-11-13T06:48:59.956Z,97057.81
2022-11-13T06:51:29.453Z,97063.84
2022-11-13T06:53:58.059Z,97063.88
2022-11-13T06:56:27.096Z,97059.50
2022-11-13T06:58:55.512Z,97050.00
2022-11-13T07:01:25.203Z,97037.66
2022-11-13T07:03:53.033Z,97041.00
2022-11-13T07:06:23.385Z,97037.63
2022-11-13T07:08:50.966Z,97034.38
2022-11-13T07:11:20.245Z,97035.22
2022-11-13T07:13:49.739Z,97018.00
2022-11-13T07:16:18.524Z,97019.28
2022-11-13T07:18:50.736Z,97020.31
2022-11-13T07:21:18.299Z,97018.63
2022-11-13T07:23:48.994Z,97017.84
2022-11-13T07:26:16.828Z,97016.59
2022-11-13T07:28:44.414Z,97013.72
2022-11-13T07:31:14.511Z,97006.75
2022-11-13T07:33:42.411Z,96995.53
2022-11-13T07:36:10.715Z,97004.44
2022-11-13T07:38:38.595Z,96991.09
2022-11-13T07:41:06.605Z,96989.41
2022-11-13T07:43:34.807Z,96996.25
2022-11-13T07:46:02.741Z,96981.31
2022-11-13T07:48:31.940Z,96967.22
2022-11-13T07:51:01.681Z,96963.22
2022-11-13T07:53:31.267Z,96964.69
2022-11-13T07:56:02.101Z,96969.69
2022-11-13T07:58:30.131Z,96953.91
2022-11-13T08:01:03.138Z,96955.19
2022-11-13T08:03:32.373Z,96945.00
2022-11-13T08:06:05.095Z,96939.00
2022-11-13T08:08:32.889Z,96940.59
2022-11-13T08:11:03.833Z,96933.44
2022-11-13T08:13:31.324Z,96938.28
2022-11-13T08:16:00.261Z,96923.84
2022-11-13T08:18:28.599Z,96929.97
2022-11-13T08:20:57.984Z,96922.63
2022-11-13T08:23:25.504Z,96927.03
2022-11-13T08:25:53.110Z,96906.91
2022-11-13T08:28:20.597Z,96912.69
2022-11-13T08:30:48.108Z,96895.13
2022-11-13T08:33:15.642Z,96896.28
2022-11-13T08:35:43.138Z,96896.81
2022-11-13T08:38:11.974Z,96894.63
2022-11-13T08:40:39.504Z,96902.09
2022-11-13T08:43:06.983Z,96906.03
2022-11-13T08:45:34.495Z,96902.03
2022-11-13T08:48:02.452Z,96905.53
2022-11-13T08:50:31.133Z,96911.53
2022-11-13T08:53:00.181Z,96920.06
2022-11-13T08:55:29.177Z,96920.78
2022-11-13T08:57:59.331Z,96936.22
2022-11-13T09:00:27.298Z,96930.00
2022-11-13T09:02:56.042Z,96922.97
2022-11-13T09:05:23.607Z,96933.34
2022-11-13T09:07:51.565Z,96936.13
2022-11-13T09:10:19.637Z,96941.41
2022-11-13T09:12:48.503Z,96948.94
2022-11-13T09:15:20.264Z,96940.84
2022-11-13T09:17:50.770Z,96948.56
2022-11-13T09:20:22.773Z,96945.47
2022-11-13T09:22:56.674Z,96945.91
2022-11-13T09:25:24.228Z,96950.38
2022-11-13T09:27:57.603Z,96947.47
2022-11-13T09:30:26.082Z,96935.63
2022-11-13T09:32:55.627Z,96937.00
2022-11-13T09:35:34.764Z,96929.31
2022-11-13T09:38:09.432Z,96936.22
2022-11-13T09:40:43.248Z,96928.19
2022-11-13T09:43:29.357Z,96922.94
2022-11-13T09:46:01.640Z,96918.16
2022-11-13T09:48:35.420Z,96907.38
2022-11-13T09:51:08.151Z,96917.75
2022-11-13T09:53:38.703Z,96908.66
2022-11-13T09:56:19.147Z,96913.16
2022-11-13T09:58:52.719Z,96908.06
2022-11-13T10:01:27.031Z,96900.88
2022-11-13T10:04:04.163Z,96902.25
2022-11-13T10:06:43.784Z,96895.22
2022-11-13T10:09:23.065Z,96893.50
2022-11-13T10:11:55.766Z,96882.19
2022-11-13T10:14:30.215Z,96893.84
2022-11-13T10:17:02.195Z,96883.28
2022-11-13T10:19:41.302Z,96885.81
2022-11-13T10:22:33.340Z,96889.81
2022-11-13T10:25:11.587Z,96884.06
2022-11-13T10:27:39.585Z,96882.38
2022-11-13T10:30:14.853Z,96879.53
2022-11-13T10:32:42.434Z,96878.34
2022-11-13T10:35:27.191Z,96866.22
2022-11-13T10:38:04.879Z,96870.31
2022-11-13T10:40:37.733Z,96856.88
2022-11-13T10:43:06.957Z,96843.53
2022-11-13T10:45:35.813Z,96839.47
2022-11-13T10:48:04.935Z,96834.94
2022-11-13T10:50:34.109Z,96829.75
2022-11-13T10:53:01.607Z,96823.56
2022-11-13T10:55:39.097Z,96818.56
2022-11-13T10:58:13.989Z,96808.16
2022-11-13T11:00:44.873Z,96801.50
2022-11-13T11:03:17.131Z,96794.38
2022-11-13T11:05:53.973Z,96792.56
2022-11-13T11:08:26.184Z,96786.84
2022-11-13T11:11:13.802Z,96778.19
2022-11-13T11:13:41.339Z,96780.50
2022-11-13T11:16:13.536Z,96771.19
2022-11-13T11:18:45.785Z,96763.75
2022-11-13T11:21:18.530Z,96760.75
2022-11-13T11:23:55.801Z,96759.19
2022-11-13T11:26:29.620Z,96756.16
2022-11-13T11:29:06.583Z,96753.59
2022-11-13T11:31:40.785Z,96748.09
2022-11-13T11:34:17.808Z,96735.06
2022-11-13T11:36:54.120Z,96747.56
2022-11-13T11:39:29.478Z,96737.41
2022-11-13T11:42:13.701Z,96727.84
2022-11-13T11:44:53.746Z,96717.91
2022-11-13T11:47:22.691Z,96714.94
2022-11-13T11:49:50.470Z,96725.69
2022-11-13T11:52:30.612Z,96717.22
2022-11-13T11:55:09.307Z,96716.34
2022-11-13T11:57:46.291Z,96716.63
2022-11-13T12:00:17.095Z,96711.38
2022-11-13T12:03:14.771Z,96717.09
2022-11-13T12:05:50.900Z,96706.59
2022-11-13T12:08:35.988Z,96693.09
2022-11-13T12:11:12.799Z,96700.19
2022-11-13T12:13:50.967Z,96698.22
2022-11-13T12:16:25.461Z,96693.50
2022-11-13T12:19:04.545Z,96687.63
2022-11-13T12:21:45.422Z,96684.44
2022-11-13T12:24:29.048Z,96680.97
2022-11-13T12:27:10.695Z,96675.66
2022-11-13T12:29:50.381Z,96665.13
2022-11-13T12:32:30.647Z,96672.97
2022-11-13T12:35:05.481Z,96659.88
2022-11-13T12:37:39.535Z,96679.72
2022-11-13T12:40:13.962Z,96672.69
2022-11-13T12:42:49.209Z,96678.28
2022-11-13T12:45:26.547Z,96663.16
2022-11-13T12:47:54.155Z,96657.16
2022-11-13T12:50:32.198Z,96660.47
2022-11-13T12:53:02.533Z,96655.16
2022-11-13T12:55:31.835Z,96656.50
2022-11-13T12:58:10.095Z,96656.13
2022-11-13T13:00:40.814Z,96645.41
2022-11-13T13:03:27.365Z,96653.19
2022-11-13T13:06:12.296Z,96635.25
2022-11-13T13:08:53.928Z,96638.75
2022-11-13T13:11:30.375Z,96633.22
2022-11-13T13:14:23.788Z,96632.56
2022-11-13T13:16:51.360Z,96630.88
2022-11-13T13:19:28.360Z,96628.53
2022-11-13T13:21:57.272Z,96630.34
2022-11-13T13:24:34.031Z,96617.72
2022-11-13T13:27:02.242Z,96618.06
2022-11-13T13:29:31.255Z,96613.72
2022-11-13T13:32:11.583Z,96614.66
2022-11-13T13:34:50.812Z,96619.75
2022-11-13T13:37:31.336Z,96620.22
2022-11-13T13:40:15.293Z,96616.78
2022-11-13T13:42:56.764Z,96617.34
2022-11-13T13:45:36.205Z,96617.97
2022-11-13T13:48:09.221Z,96609.84
2022-11-13T13:50:48.216Z,96612.00
2022-11-13T13:53:21.851Z,96612.06
2022-11-13T13:55:52.347Z,96604.94
2022-11-13T13:58:25.704Z,96605.97
2022-11-13T14:01:17.081Z,96603.09
2022-11-13T14:03:45.939Z,96602.34
2022-11-13T14:06:21.884Z,96596.47
2022-11-13T14:08:50.955Z,96599.72
2022-11-13T14:11:20.661Z,96592.31
2022-11-13T14:13:48.195Z,96596.78
2022-11-13T14:16:15.731Z,96606.31
2022-11-13T14:18:43.325Z,96611.56
2022-11-13T14:21:16.638Z,96601.56
2022-11-13T14:23:47.731Z,96596.31
2022-11-13T14:26:17.255Z,96592.47
2022-11-13T14:28:53.606Z,96599.09
2022-11-13T14:31:27.709Z,96592.53
2022-11-13T14:33:55.326Z,96597.22
2022-11-13T14:36:29.856Z,96603.38
2022-11-13T14:38:57.932Z,96598.16
2022-11-13T14:41:37.578Z,96609.31
2022-11-13T14:44:05.782Z,96603.72
2022-11-13T14:46:36.582Z,96593.47
2022-11-13T14:49:04.789Z,96605.69
2022-11-13T14:51:34.415Z,96593.53
2022-11-13T14:54:07.858Z,96597.34
2022-11-13T14:56:41.015Z,96593.44
2022-11-13T14:59:11.662Z,96590.41
2022-11-13T15:01:42.584Z,96570.69
2022-11-13T15:04:10.114Z,96576.84
2022-11-13T15:06:39.882Z,96563.63
2022-11-13T15:09:13.528Z,96576.56
2022-11-13T15:11:45.245Z,96579.34
2022-11-13T15:14:16.384Z,96580.41
2022-11-13T15:16:46.484Z,96581.00
2022-11-13T15:19:17.655Z,96576.69
2022-11-13T15:22:05.452Z,96577.75
2022-11-13T15:24:34.637Z,96574.31
2022-11-13T15:27:04.412Z,96582.59
2022-11-13T15:29:34.491Z,96590.16
2022-11-13T15:32:02.394Z,96579.97
2022-11-13T15:34:29.903Z,96591.16
2022-11-13T15:36:57.414Z,96584.34
2022-11-13T15:39:24.909Z,96589.50
2022-11-13T15:41:53.158Z,96580.31
2022-11-13T15:44:22.015Z,96587.81
2022-11-13T15:46:49.538Z,96586.50
2022-11-13T15:49:17.032Z,96580.59
2022-11-13T15:51:46.436Z,96588.63
2022-11-13T15:54:24.562Z,96596.13
2022-11-13T15:56:52.058Z,96587.28
2022-11-13T15:59:19.570Z,96583.03
2022-11-13T16:01:50.802Z,96578.75
2022-11-13T16:04:22.013Z,96583.09
2022-11-13T16:06:49.864Z,96586.25
2022-11-13T16:09:17.427Z,96592.03
2022-11-13T16:11:44.928Z,96582.72
2022-11-13T16:14:12.446Z,96576.53
2022-11-13T16:16:41.796Z,96593.09
2022-11-13T16:19:14.008Z,96593.59
2022-11-13T16:21:41.681Z,96580.22
2022-11-13T16:24:12.298Z,96595.81
2022-11-13T16:26:41.537Z,96592.81
2022-11-13T16:29:18.406Z,96586.47
2022-11-13T16:31:45.956Z,96587.91
2022-11-13T16:34:15.018Z,96591.13
2022-11-13T16:36:43.278Z,96586.91
2022-11-13T16:39:15.782Z,96584.84
2022-11-13T16:41:43.329Z,96597.06
2022-11-13T16:44:10.878Z,96603.03
2022-11-13T16:46:41.606Z,96597.81
2022-11-13T16:49:18.909Z,96602.22
2022-11-13T16:51:46.685Z,96593.72
2022-11-13T16:54:14.477Z,96589.44
2022-11-13T16:56:42.058Z,96598.41
2022-11-13T16:59:11.603Z,96593.38
2022-11-13T17:01:39.296Z,96588.09
2022-11-13T17:04:06.987Z,96590.28
2022-11-13T17:06:37.346Z,96581.75
2022-11-13T17:09:05.468Z,96598.25
2022-11-13T17:11:33.670Z,96590.28
2022-11-13T17:14:02.560Z,96590.72
2022-11-13T17:16:31.404Z,96585.09
2022-11-13T17:18:59.196Z,96587.88
2022-11-13T17:21:28.676Z,96579.38
2022-11-13T17:23:58.741Z,96571.72
2022-11-13T17:26:26.851Z,96574.34
2022-11-13T17:28:54.636Z,96569.59
2022-11-13T17:31:22.435Z,96572.22
2022-11-13T17:33:53.111Z,96576.53
2022-11-13T17:36:20.662Z,96567.66
2022-11-13T17:38:48.443Z,96563.56
2022-11-13T17:41:18.153Z,96572.09
2022-11-13T17:43:45.885Z,96560.94
2022-11-13T17:46:16.526Z,96568.72
2022-11-13T17:48:44.649Z,96559.66
2022-11-13T17:51:14.709Z,96561.78
2022-11-13T17:53:42.397Z,96564.56
2022-11-13T17:56:11.596Z,96556.91
2022-11-13T17:58:41.809Z,96557.59
2022-11-13T18:01:12.508Z,96554.84
2022-11-13T18:03:40.450Z,96553.19
2022-11-13T18:06:11.955Z,96560.09
2022-11-13T18:08:41.465Z,96555.59
2022-11-13T18:11:10.000Z,96556.28
2022-11-13T18:13:38.216Z,96559.75
2022-11-13T18:16:09.125Z,96554.41
2022-11-13T18:18:36.952Z,96555.84
2022-11-13T18:21:22.513Z,96561.19
2022-11-13T18:23:56.288Z,96553.91
2022-11-13T18:26:24.255Z,96548.44
2022-11-13T18:28:51.757Z,96548.66
2022-11-13T18:31:21.628Z,96540.28
2022-11-13T18:33:49.161Z,96543.03
2022-11-13T18:36:16.785Z,96539.34
2022-11-13T18:38:44.865Z,96536.56
2022-11-13T18:41:15.270Z,96538.03
2022-11-13T18:43:44.455Z,96538.53
2022-11-13T18:46:13.628Z,96537.06
2022-11-13T18:48:44.142Z,96539.22
2022-11-13T18:51:14.765Z,96539.00
2022-11-13T18:53:43.599Z,96535.41
2022-11-13T18:56:14.501Z,96535.19
2022-11-13T18:58:43.729Z,96533.72
2022-11-13T19:01:15.143Z,96535.41
2022-11-13T19:04:08.166Z,96534.47
2022-11-13T19:06:36.309Z,96533.28
2022-11-13T19:09:06.636Z,96526.47
2022-11-13T19:11:34.956Z,96524.41
2022-11-13T19:14:02.854Z,96518.09
2022-11-13T19:16:34.073Z,96519.78
2022-11-13T19:19:05.358Z,96512.47
2022-11-13T19:21:34.556Z,96519.41
2022-11-13T19:24:03.394Z,96516.56
2022-11-13T19:26:31.147Z,96521.34
2022-11-13T19:28:59.026Z,96516.94
2022-11-13T19:31:28.157Z,96517.25
2022-11-13T19:33:56.820Z,96519.94
2022-11-13T19:36:27.978Z,96514.09
2022-11-13T19:38:56.618Z,96500.91
2022-11-13T19:41:26.271Z,96502.03
2022-11-13T19:43:54.241Z,96504.09
2022-11-13T19:46:22.264Z,96508.06
2022-11-13T19:48:50.673Z,96510.34
2022-11-13T19:51:20.353Z,96509.47
2022-11-13T19:53:53.666Z,96501.25
2022-11-13T19:56:22.450Z,96513.69
2022-11-13T19:58:51.550Z,96514.03
2022-11-13T20:01:21.806Z,96511.34
2022-11-13T20:03:53.758Z,96516.09
2022-11-13T20:06:21.288Z,96514.06
2022-11-13T20:08:50.507Z,96519.41
2022-11-13T20:11:18.060Z,96517.59
2022-11-13T20:13:46.271Z,96517.16
2022-11-13T20:16:15.917Z,96506.09
2022-11-13T20:18:45.139Z,96509.63
2022-11-13T20:21:12.721Z,96513.19
2022-11-13T20:23:40.815Z,96513.81
2022-11-13T20:26:13.563Z,96514.38
2022-11-13T20:28:41.144Z,96509.63
2022-11-13T20:31:14.153Z,96504.72
2022-11-13T20:33:41.647Z,96493.44
2022-11-13T20:36:09.871Z,96497.47
2022-11-13T20:38:37.437Z,96490.94
2022-11-13T20:41:05.615Z,96474.22
2022-11-13T20:43:34.744Z,96480.06
2022-11-13T20:46:03.206Z,96472.63
2022-11-13T20:48:31.129Z,96473.66
2022-11-13T20:51:05.192Z,96479.84
2022-11-13T20:53:32.734Z,96470.22
2022-11-13T20:56:00.288Z,96478.09
2022-11-13T20:58:28.177Z,96476.69
2022-11-13T21:01:04.058Z,96475.84
2022-11-13T21:03:31.866Z,96481.22
2022-11-13T21:06:00.305Z,96482.84
2022-11-13T21:08:28.165Z,96480.50
2022-11-13T21:10:55.933Z,96485.03
2022-11-13T21:13:23.650Z,96485.34
2022-11-13T21:15:51.180Z,96474.88
2022-11-13T21:18:20.614Z,96475.72
2022-11-13T21:20:48.654Z,96475.38
2022-11-13T21:23:16.231Z,96480.38
2022-11-13T21:25:43.768Z,96484.81
2022-11-13T21:28:11.287Z,96486.00
2022-11-13T21:30:38.838Z,96484.31
2022-11-13T21:33:06.370Z,96472.84
2022-11-13T21:35:35.300Z,96469.72
2022-11-13T21:38:06.206Z,96463.03
2022-11-13T21:40:33.759Z,96465.16
2022-11-13T21:43:01.294Z,96459.88
2022-11-13T21:45:28.849Z,96455.44
2022-11-13T21:47:56.362Z,96464.22
2022-11-13T21:50:23.891Z,96456.13
2022-11-13T21:52:52.752Z,96452.34
2022-11-13T21:55:20.364Z,96451.81
2022-11-13T21:57:47.972Z,96444.75
2022-11-13T22:00:16.664Z,96445.00
2022-11-13T22:02:44.240Z,96451.50
2022-11-13T22:05:11.791Z,96439.25
2022-11-13T22:07:39.306Z,96435.00
2022-11-13T22:10:09.262Z,96430.47
2022-11-13T22:12:36.788Z,96447.94
2022-11-13T22:15:04.598Z,96427.06
2022-11-13T22:17:32.470Z,96430.06
2022-11-13T22:20:00.019Z,96429.09
2022-11-13T22:22:27.631Z,96430.31
2022-11-13T22:24:55.171Z,96426.84
2022-11-13T22:27:24.035Z,96418.16
2022-11-13T22:29:51.587Z,96416.97
2022-11-13T22:32:19.140Z,96420.44
2022-11-13T22:34:46.650Z,96416.34
2022-11-13T22:37:14.179Z,96414.91
2022-11-13T22:39:41.719Z,96412.56
2022-11-13T22:42:09.225Z,96413.66
2022-11-13T22:44:55.040Z,96408.31
2022-11-13T22:47:23.767Z,96409.75
2022-11-13T22:49:51.286Z,96403.25
2022-11-13T22:52:18.897Z,96402.84
2022-11-13T22:54:46.430Z,96403.06
2022-11-13T22:57:13.962Z,96392.91
2022-11-13T22:59:42.831Z,96398.63
2022-11-13T23:02:10.482Z,96388.34
2022-11-13T23:04:38.051Z,96394.28
2022-11-13T23:07:05.732Z,96383.53
2022-11-13T23:09:33.398Z,96387.97
2022-11-13T23:12:00.954Z,96383.31
2022-11-13T23:14:28.500Z,96380.03
2022-11-13T23:16:57.385Z,96385.09
2022-11-13T23:19:24.921Z,96379.13
2022-11-13T23:21:52.479Z,96377.75
2022-11-13T23:24:19.989Z,96373.69
2022-11-13T23:26:47.528Z,96364.88
2022-11-13T23:29:15.402Z,96360.06
2022-11-13T23:31:42.938Z,96360.09
2022-11-13T23:34:11.935Z,96363.84
2022-11-13T23:36:39.445Z,96353.59
2022-11-13T23:39:07.024Z,96364.41
2022-11-13T23:41:34.639Z,96360.41
2022-11-13T23:44:08.761Z,96359.59
2022-11-13T23:46:36.976Z,96362.78
2022-11-13T23:49:04.509Z,96358.91
2022-11-13T23:51:33.405Z,96349.00
2022-11-13T23:54:01.121Z,96356.88
2022-11-13T23:56:29.107Z,96357.84
2022-11-13T23:58:56.640Z,96348.22
